OGG weather

Kahului Airport
Kahului, Hawaii, United States

Public forecast

Using degrees Fahrenheit for public forecast. Weather courtesy of forecast.io.

Current aviation weather report (METAR) for Kahului Airport

Retrieved 2020/02/19 05:54 UTC (54 minutes ago):

PHOG 190554Z 04015G24KT 10SM FEW020 SCT030 SCT045 22/18 A3012

Aviation forecast (TAF) for Kahului Airport

Retrieved 2020/02/19 06:33 UTC (15 minutes ago):

TAF PHOG 190530Z 1906/2006 05015KT P6SM VCSH SCT030 BKN050 FM191900 06019G27KT P6SM VCSH SCT030 BKN050 FM192100 06025G35KT P6SM VCSH FEW030 SCT050 FM200300 06018G26KT P6SM VCSH SCT030 BKN050 AMD LTD TO VIS AND WIND 1909/1916